sensor_id;sensor_type;location;lat;lon;timestamp;P1;durP1;ratioP1;P2;durP2;ratioP2
15567;SDS011;7885;42.596;23.044;2023-08-07T00:01:49;1.30;;;1.20;;
15567;SDS011;7885;42.596;23.044;2023-08-07T00:04:16;2.00;;;1.00;;
15567;SDS011;7885;42.596;23.044;2023-08-07T00:06:43;1.30;;;1.20;;
15567;SDS011;7885;42.596;23.044;2023-08-07T00:09:10;2.00;;;1.17;;
15567;SDS011;7885;42.596;23.044;2023-08-07T00:11:38;1.50;;;1.40;;
15567;SDS011;7885;42.596;23.044;2023-08-07T00:14:04;1.40;;;1.20;;
15567;SDS011;7885;42.596;23.044;2023-08-07T00:16:31;2.43;;;1.40;;
15567;SDS011;7885;42.596;23.044;2023-08-07T00:18:58;1.50;;;1.30;;
15567;SDS011;7885;42.596;23.044;2023-08-07T00:21:25;2.00;;;1.20;;
15567;SDS011;7885;42.596;23.044;2023-08-07T00:23:51;1.57;;;1.13;;
15567;SDS011;7885;42.596;23.044;2023-08-07T00:26:19;1.30;;;1.20;;
15567;SDS011;7885;42.596;23.044;2023-08-07T00:28:48;1.33;;;1.23;;
15567;SDS011;7885;42.596;23.044;2023-08-07T00:31:14;1.80;;;1.50;;
15567;SDS011;7885;42.596;23.044;2023-08-07T00:33:41;1.50;;;1.20;;
15567;SDS011;7885;42.596;23.044;2023-08-07T00:36:08;1.07;;;1.07;;
15567;SDS011;7885;42.596;23.044;2023-08-07T00:38:35;1.67;;;1.47;;
15567;SDS011;7885;42.596;23.044;2023-08-07T00:41:01;2.30;;;1.40;;
15567;SDS011;7885;42.596;23.044;2023-08-07T00:43:28;2.67;;;1.30;;
15567;SDS011;7885;42.596;23.044;2023-08-07T00:45:56;2.47;;;1.43;;
15567;SDS011;7885;42.596;23.044;2023-08-07T00:48:23;2.80;;;1.30;;
15567;SDS011;7885;42.596;23.044;2023-08-07T00:50:50;1.63;;;1.53;;
15567;SDS011;7885;42.596;23.044;2023-08-07T00:53:18;1.60;;;1.50;;
15567;SDS011;7885;42.596;23.044;2023-08-07T00:55:45;1.73;;;1.50;;
15567;SDS011;7885;42.596;23.044;2023-08-07T00:58:12;1.47;;;1.37;;
15567;SDS011;7885;42.596;23.044;2023-08-07T01:00:40;1.50;;;1.40;;
15567;SDS011;7885;42.596;23.044;2023-08-07T01:03:09;2.03;;;1.67;;
15567;SDS011;7885;42.596;23.044;2023-08-07T01:05:38;2.00;;;1.57;;
15567;SDS011;7885;42.596;23.044;2023-08-07T01:08:06;2.03;;;1.63;;
15567;SDS011;7885;42.596;23.044;2023-08-07T01:10:35;1.93;;;1.73;;
15567;SDS011;7885;42.596;23.044;2023-08-07T01:13:08;1.50;;;1.40;;
15567;SDS011;7885;42.596;23.044;2023-08-07T01:15:41;2.03;;;1.53;;
15567;SDS011;7885;42.596;23.044;2023-08-07T01:18:09;2.93;;;1.60;;
15567;SDS011;7885;42.596;23.044;2023-08-07T01:20:37;2.00;;;1.67;;
15567;SDS011;7885;42.596;23.044;2023-08-07T01:23:05;2.00;;;1.80;;
15567;SDS011;7885;42.596;23.044;2023-08-07T01:25:32;2.27;;;1.70;;
15567;SDS011;7885;42.596;23.044;2023-08-07T01:28:02;1.70;;;1.60;;
15567;SDS011;7885;42.596;23.044;2023-08-07T01:30:33;3.00;;;1.63;;
15567;SDS011;7885;42.596;23.044;2023-08-07T01:33:04;1.57;;;1.47;;
15567;SDS011;7885;42.596;23.044;2023-08-07T01:35:39;1.50;;;1.40;;
15567;SDS011;7885;42.596;23.044;2023-08-07T01:38:09;1.80;;;1.60;;
15567;SDS011;7885;42.596;23.044;2023-08-07T01:40:37;1.50;;;1.40;;
15567;SDS011;7885;42.596;23.044;2023-08-07T01:43:05;1.70;;;1.60;;
15567;SDS011;7885;42.596;23.044;2023-08-07T01:45:32;2.50;;;1.70;;
15567;SDS011;7885;42.596;23.044;2023-08-07T01:47:59;2.70;;;1.60;;
15567;SDS011;7885;42.596;23.044;2023-08-07T01:50:26;1.67;;;1.57;;
15567;SDS011;7885;42.596;23.044;2023-08-07T01:52:54;2.70;;;1.40;;
15567;SDS011;7885;42.596;23.044;2023-08-07T01:55:22;2.07;;;1.60;;
15567;SDS011;7885;42.596;23.044;2023-08-07T01:57:49;1.63;;;1.53;;
15567;SDS011;7885;42.596;23.044;2023-08-07T02:00:16;2.37;;;1.40;;
15567;SDS011;7885;42.596;23.044;2023-08-07T02:02:43;2.13;;;1.80;;
15567;SDS011;7885;42.596;23.044;2023-08-07T02:05:12;2.20;;;1.53;;
15567;SDS011;7885;42.596;23.044;2023-08-07T02:07:39;1.70;;;1.30;;
15567;SDS011;7885;42.596;23.044;2023-08-07T02:10:06;1.97;;;1.63;;
15567;SDS011;7885;42.596;23.044;2023-08-07T02:12:34;1.70;;;1.60;;
15567;SDS011;7885;42.596;23.044;2023-08-07T02:15:01;2.80;;;1.70;;
15567;SDS011;7885;42.596;23.044;2023-08-07T02:17:28;3.27;;;1.60;;
15567;SDS011;7885;42.596;23.044;2023-08-07T02:19:56;1.67;;;1.57;;
15567;SDS011;7885;42.596;23.044;2023-08-07T02:22:23;1.50;;;1.40;;
15567;SDS011;7885;42.596;23.044;2023-08-07T02:24:50;2.43;;;1.60;;
15567;SDS011;7885;42.596;23.044;2023-08-07T02:27:16;5.00;;;1.60;;
15567;SDS011;7885;42.596;23.044;2023-08-07T02:29:45;2.43;;;1.80;;
15567;SDS011;7885;42.596;23.044;2023-08-07T02:32:11;3.07;;;1.67;;
15567;SDS011;7885;42.596;23.044;2023-08-07T02:34:38;2.07;;;1.77;;
15567;SDS011;7885;42.596;23.044;2023-08-07T02:37:05;1.70;;;1.60;;
15567;SDS011;7885;42.596;23.044;2023-08-07T02:39:32;1.90;;;1.80;;
15567;SDS011;7885;42.596;23.044;2023-08-07T02:41:58;2.20;;;1.90;;
15567;SDS011;7885;42.596;23.044;2023-08-07T02:44:25;6.17;;;2.63;;
15567;SDS011;7885;42.596;23.044;2023-08-07T02:46:53;6.97;;;2.80;;
15567;SDS011;7885;42.596;23.044;2023-08-07T02:49:20;6.10;;;2.60;;
15567;SDS011;7885;42.596;23.044;2023-08-07T02:51:47;4.57;;;2.40;;
15567;SDS011;7885;42.596;23.044;2023-08-07T02:54:13;6.47;;;2.93;;
15567;SDS011;7885;42.596;23.044;2023-08-07T02:56:40;6.17;;;2.50;;
15567;SDS011;7885;42.596;23.044;2023-08-07T02:59:07;3.93;;;2.50;;
15567;SDS011;7885;42.596;23.044;2023-08-07T03:01:34;3.23;;;2.10;;
15567;SDS011;7885;42.596;23.044;2023-08-07T03:04:02;2.47;;;1.90;;
15567;SDS011;7885;42.596;23.044;2023-08-07T03:06:29;2.13;;;1.93;;
15567;SDS011;7885;42.596;23.044;2023-08-07T03:08:56;3.20;;;1.80;;
15567;SDS011;7885;42.596;23.044;2023-08-07T03:11:22;2.33;;;2.13;;
15567;SDS011;7885;42.596;23.044;2023-08-07T03:13:49;2.37;;;2.17;;
15567;SDS011;7885;42.596;23.044;2023-08-07T03:16:16;2.30;;;2.10;;
15567;SDS011;7885;42.596;23.044;2023-08-07T03:18:43;2.33;;;2.00;;
15567;SDS011;7885;42.596;23.044;2023-08-07T03:21:11;2.53;;;2.13;;
15567;SDS011;7885;42.596;23.044;2023-08-07T03:23:37;3.00;;;2.23;;
15567;SDS011;7885;42.596;23.044;2023-08-07T03:26:05;4.63;;;2.40;;
15567;SDS011;7885;42.596;23.044;2023-08-07T03:28:33;3.77;;;2.33;;
15567;SDS011;7885;42.596;23.044;2023-08-07T03:31:00;2.97;;;1.93;;
15567;SDS011;7885;42.596;23.044;2023-08-07T03:33:27;2.30;;;2.10;;
15567;SDS011;7885;42.596;23.044;2023-08-07T03:35:54;3.57;;;2.13;;
15567;SDS011;7885;42.596;23.044;2023-08-07T03:38:22;2.47;;;2.00;;
15567;SDS011;7885;42.596;23.044;2023-08-07T03:40:49;4.13;;;2.17;;
15567;SDS011;7885;42.596;23.044;2023-08-07T03:43:16;3.30;;;2.00;;
15567;SDS011;7885;42.596;23.044;2023-08-07T03:45:43;3.20;;;2.20;;
15567;SDS011;7885;42.596;23.044;2023-08-07T03:48:09;3.70;;;2.30;;
15567;SDS011;7885;42.596;23.044;2023-08-07T03:50:36;4.77;;;2.50;;
15567;SDS011;7885;42.596;23.044;2023-08-07T03:53:03;5.57;;;2.70;;
15567;SDS011;7885;42.596;23.044;2023-08-07T03:55:33;3.40;;;2.77;;
15567;SDS011;7885;42.596;23.044;2023-08-07T03:58:00;3.97;;;3.23;;
15567;SDS011;7885;42.596;23.044;2023-08-07T04:00:27;6.77;;;3.83;;
15567;SDS011;7885;42.596;23.044;2023-08-07T04:02:54;7.03;;;4.50;;
15567;SDS011;7885;42.596;23.044;2023-08-07T04:05:20;6.27;;;4.00;;
15567;SDS011;7885;42.596;23.044;2023-08-07T04:07:47;3.87;;;3.33;;
15567;SDS011;7885;42.596;23.044;2023-08-07T04:10:14;4.67;;;3.70;;
15567;SDS011;7885;42.596;23.044;2023-08-07T04:12:42;4.77;;;3.90;;
15567;SDS011;7885;42.596;23.044;2023-08-07T04:15:09;7.23;;;3.83;;
15567;SDS011;7885;42.596;23.044;2023-08-07T04:17:36;5.63;;;3.73;;
15567;SDS011;7885;42.596;23.044;2023-08-07T04:20:03;4.50;;;3.63;;
15567;SDS011;7885;42.596;23.044;2023-08-07T04:25:52;5.13;;;3.90;;
15567;SDS011;7885;42.596;23.044;2023-08-07T04:28:21;3.90;;;3.00;;
15567;SDS011;7885;42.596;23.044;2023-08-07T04:30:49;4.50;;;3.63;;
15567;SDS011;7885;42.596;23.044;2023-08-07T04:33:16;8.00;;;3.50;;
15567;SDS011;7885;42.596;23.044;2023-08-07T04:35:43;4.10;;;3.70;;
15567;SDS011;7885;42.596;23.044;2023-08-07T04:38:11;3.40;;;3.10;;
15567;SDS011;7885;42.596;23.044;2023-08-07T04:40:38;12.67;;;3.53;;
15567;SDS011;7885;42.596;23.044;2023-08-07T04:43:10;4.60;;;3.40;;
15567;SDS011;7885;42.596;23.044;2023-08-07T04:45:38;2.93;;;2.73;;
15567;SDS011;7885;42.596;23.044;2023-08-07T04:48:04;3.30;;;3.00;;
15567;SDS011;7885;42.596;23.044;2023-08-07T04:50:31;4.90;;;3.20;;
15567;SDS011;7885;42.596;23.044;2023-08-07T04:52:58;7.53;;;3.57;;
15567;SDS011;7885;42.596;23.044;2023-08-07T04:55:25;6.17;;;3.40;;
15567;SDS011;7885;42.596;23.044;2023-08-07T04:57:51;5.07;;;3.30;;
15567;SDS011;7885;42.596;23.044;2023-08-07T05:00:19;7.10;;;3.90;;
15567;SDS011;7885;42.596;23.044;2023-08-07T05:02:48;4.93;;;3.90;;
15567;SDS011;7885;42.596;23.044;2023-08-07T05:05:15;10.77;;;4.27;;
15567;SDS011;7885;42.596;23.044;2023-08-07T05:07:42;7.27;;;4.20;;
15567;SDS011;7885;42.596;23.044;2023-08-07T05:10:09;4.37;;;4.07;;
15567;SDS011;7885;42.596;23.044;2023-08-07T05:12:36;6.33;;;4.20;;
15567;SDS011;7885;42.596;23.044;2023-08-07T05:15:03;4.20;;;3.80;;
15567;SDS011;7885;42.596;23.044;2023-08-07T05:17:30;4.63;;;3.80;;
15567;SDS011;7885;42.596;23.044;2023-08-07T05:19:59;4.23;;;3.83;;
15567;SDS011;7885;42.596;23.044;2023-08-07T05:22:25;3.70;;;3.37;;
15567;SDS011;7885;42.596;23.044;2023-08-07T05:24:52;5.53;;;3.50;;
15567;SDS011;7885;42.596;23.044;2023-08-07T05:27:19;3.40;;;3.20;;
15567;SDS011;7885;42.596;23.044;2023-08-07T05:29:46;3.50;;;3.20;;
15567;SDS011;7885;42.596;23.044;2023-08-07T05:32:13;2.90;;;2.70;;
15567;SDS011;7885;42.596;23.044;2023-08-07T05:34:40;4.43;;;2.80;;
15567;SDS011;7885;42.596;23.044;2023-08-07T05:37:09;4.07;;;2.80;;
15567;SDS011;7885;42.596;23.044;2023-08-07T05:39:35;3.90;;;2.80;;
15567;SDS011;7885;42.596;23.044;2023-08-07T05:42:03;2.90;;;2.70;;
15567;SDS011;7885;42.596;23.044;2023-08-07T05:44:30;3.17;;;2.90;;
15567;SDS011;7885;42.596;23.044;2023-08-07T05:46:57;3.23;;;2.83;;
15567;SDS011;7885;42.596;23.044;2023-08-07T05:49:23;3.00;;;2.70;;
15567;SDS011;7885;42.596;23.044;2023-08-07T05:51:50;3.20;;;2.57;;
15567;SDS011;7885;42.596;23.044;2023-08-07T05:54:18;2.67;;;2.47;;
15567;SDS011;7885;42.596;23.044;2023-08-07T05:56:45;3.83;;;2.90;;
15567;SDS011;7885;42.596;23.044;2023-08-07T05:59:12;2.47;;;2.20;;
15567;SDS011;7885;42.596;23.044;2023-08-07T06:01:38;2.67;;;2.47;;
15567;SDS011;7885;42.596;23.044;2023-08-07T06:04:06;2.17;;;2.00;;
15567;SDS011;7885;42.596;23.044;2023-08-07T06:06:33;3.23;;;2.40;;
15567;SDS011;7885;42.596;23.044;2023-08-07T06:09:01;8.00;;;3.47;;
15567;SDS011;7885;42.596;23.044;2023-08-07T06:11:29;2.70;;;2.50;;
15567;SDS011;7885;42.596;23.044;2023-08-07T06:13:56;3.07;;;2.50;;
15567;SDS011;7885;42.596;23.044;2023-08-07T06:16:23;2.17;;;1.97;;
15567;SDS011;7885;42.596;23.044;2023-08-07T06:18:49;2.47;;;2.10;;
15567;SDS011;7885;42.596;23.044;2023-08-07T06:21:16;2.63;;;2.43;;
15567;SDS011;7885;42.596;23.044;2023-08-07T06:23:43;2.63;;;2.33;;
15567;SDS011;7885;42.596;23.044;2023-08-07T06:26:10;2.63;;;2.30;;
15567;SDS011;7885;42.596;23.044;2023-08-07T06:28:38;2.67;;;1.60;;
15567;SDS011;7885;42.596;23.044;2023-08-07T06:31:06;1.80;;;1.70;;
15567;SDS011;7885;42.596;23.044;2023-08-07T06:33:34;1.73;;;1.33;;
15567;SDS011;7885;42.596;23.044;2023-08-07T06:36:01;1.20;;;1.10;;
15567;SDS011;7885;42.596;23.044;2023-08-07T06:38:29;1.50;;;1.40;;
15567;SDS011;7885;42.596;23.044;2023-08-07T06:40:56;1.33;;;1.23;;
15567;SDS011;7885;42.596;23.044;2023-08-07T06:43:23;1.20;;;1.10;;
15567;SDS011;7885;42.596;23.044;2023-08-07T06:45:51;2.20;;;1.10;;
15567;SDS011;7885;42.596;23.044;2023-08-07T06:48:18;2.23;;;1.40;;
15567;SDS011;7885;42.596;23.044;2023-08-07T06:50:46;1.60;;;1.50;;
15567;SDS011;7885;42.596;23.044;2023-08-07T06:53:13;1.50;;;1.40;;
15567;SDS011;7885;42.596;23.044;2023-08-07T06:55:40;1.50;;;1.40;;
15567;SDS011;7885;42.596;23.044;2023-08-07T06:58:07;2.60;;;1.40;;
15567;SDS011;7885;42.596;23.044;2023-08-07T07:00:34;1.97;;;1.60;;
15567;SDS011;7885;42.596;23.044;2023-08-07T07:03:02;4.03;;;1.47;;
15567;SDS011;7885;42.596;23.044;2023-08-07T07:05:29;3.53;;;1.57;;
15567;SDS011;7885;42.596;23.044;2023-08-07T07:07:56;1.77;;;1.47;;
15567;SDS011;7885;42.596;23.044;2023-08-07T07:10:24;1.60;;;1.30;;
15567;SDS011;7885;42.596;23.044;2023-08-07T07:12:51;1.80;;;1.50;;
15567;SDS011;7885;42.596;23.044;2023-08-07T07:15:18;2.03;;;1.50;;
15567;SDS011;7885;42.596;23.044;2023-08-07T07:17:45;2.60;;;1.97;;
15567;SDS011;7885;42.596;23.044;2023-08-07T07:20:13;1.83;;;1.73;;
15567;SDS011;7885;42.596;23.044;2023-08-07T07:22:40;1.53;;;1.43;;
15567;SDS011;7885;42.596;23.044;2023-08-07T07:25:07;2.53;;;1.30;;
15567;SDS011;7885;42.596;23.044;2023-08-07T07:27:35;1.40;;;1.30;;
15567;SDS011;7885;42.596;23.044;2023-08-07T07:30:01;1.70;;;1.40;;
15567;SDS011;7885;42.596;23.044;2023-08-07T07:32:28;2.07;;;1.40;;
15567;SDS011;7885;42.596;23.044;2023-08-07T07:34:55;1.50;;;1.40;;
15567;SDS011;7885;42.596;23.044;2023-08-07T07:37:23;1.50;;;1.40;;
15567;SDS011;7885;42.596;23.044;2023-08-07T07:39:50;1.40;;;1.30;;
15567;SDS011;7885;42.596;23.044;2023-08-07T07:42:17;1.80;;;1.50;;
15567;SDS011;7885;42.596;23.044;2023-08-07T07:44:43;2.47;;;1.40;;
15567;SDS011;7885;42.596;23.044;2023-08-07T07:47:10;1.60;;;1.50;;
15567;SDS011;7885;42.596;23.044;2023-08-07T07:49:37;1.37;;;1.27;;
15567;SDS011;7885;42.596;23.044;2023-08-07T07:52:04;3.10;;;1.20;;
15567;SDS011;7885;42.596;23.044;2023-08-07T07:54:34;2.13;;;1.20;;
15567;SDS011;7885;42.596;23.044;2023-08-07T07:57:01;1.47;;;1.27;;
15567;SDS011;7885;42.596;23.044;2023-08-07T07:59:28;1.50;;;1.40;;
15567;SDS011;7885;42.596;23.044;2023-08-07T08:01:55;1.97;;;1.30;;
15567;SDS011;7885;42.596;23.044;2023-08-07T08:04:22;1.37;;;1.27;;
15567;SDS011;7885;42.596;23.044;2023-08-07T08:06:49;1.30;;;1.20;;
15567;SDS011;7885;42.596;23.044;2023-08-07T08:09:16;1.60;;;1.20;;
15567;SDS011;7885;42.596;23.044;2023-08-07T08:11:44;1.20;;;1.10;;
15567;SDS011;7885;42.596;23.044;2023-08-07T08:14:11;2.10;;;1.30;;
15567;SDS011;7885;42.596;23.044;2023-08-07T08:16:37;1.40;;;1.07;;
15567;SDS011;7885;42.596;23.044;2023-08-07T08:19:04;1.40;;;1.30;;
15567;SDS011;7885;42.596;23.044;2023-08-07T08:21:32;1.13;;;1.00;;
15567;SDS011;7885;42.596;23.044;2023-08-07T08:23:59;1.23;;;1.20;;
15567;SDS011;7885;42.596;23.044;2023-08-07T08:26:29;1.10;;;1.00;;
15567;SDS011;7885;42.596;23.044;2023-08-07T08:28:57;2.40;;;1.53;;
15567;SDS011;7885;42.596;23.044;2023-08-07T08:31:24;2.90;;;1.40;;
15567;SDS011;7885;42.596;23.044;2023-08-07T08:33:51;3.07;;;1.50;;
15567;SDS011;7885;42.596;23.044;2023-08-07T08:36:19;2.67;;;1.70;;
15567;SDS011;7885;42.596;23.044;2023-08-07T08:38:46;1.50;;;1.30;;
15567;SDS011;7885;42.596;23.044;2023-08-07T08:41:13;1.83;;;1.27;;
15567;SDS011;7885;42.596;23.044;2023-08-07T08:43:42;1.60;;;1.50;;
15567;SDS011;7885;42.596;23.044;2023-08-07T08:46:13;1.40;;;1.30;;
15567;SDS011;7885;42.596;23.044;2023-08-07T08:48:41;4.00;;;1.50;;
15567;SDS011;7885;42.596;23.044;2023-08-07T08:51:13;3.00;;;1.40;;
15567;SDS011;7885;42.596;23.044;2023-08-07T08:53:40;3.93;;;1.53;;
15567;SDS011;7885;42.596;23.044;2023-08-07T08:56:07;1.80;;;1.30;;
15567;SDS011;7885;42.596;23.044;2023-08-07T08:58:35;1.53;;;1.43;;
15567;SDS011;7885;42.596;23.044;2023-08-07T09:01:02;1.67;;;1.40;;
15567;SDS011;7885;42.596;23.044;2023-08-07T09:03:31;2.27;;;1.47;;
15567;SDS011;7885;42.596;23.044;2023-08-07T09:05:58;1.40;;;1.30;;
15567;SDS011;7885;42.596;23.044;2023-08-07T09:08:25;1.33;;;1.10;;
15567;SDS011;7885;42.596;23.044;2023-08-07T09:10:55;1.60;;;1.50;;
15567;SDS011;7885;42.596;23.044;2023-08-07T09:13:22;1.27;;;1.17;;
15567;SDS011;7885;42.596;23.044;2023-08-07T09:15:50;1.40;;;1.30;;
15567;SDS011;7885;42.596;23.044;2023-08-07T09:18:17;1.40;;;1.30;;
15567;SDS011;7885;42.596;23.044;2023-08-07T09:20:46;1.83;;;1.40;;
15567;SDS011;7885;42.596;23.044;2023-08-07T09:23:14;3.67;;;1.50;;
15567;SDS011;7885;42.596;23.044;2023-08-07T09:25:42;4.03;;;1.40;;
15567;SDS011;7885;42.596;23.044;2023-08-07T09:28:09;1.67;;;1.57;;
15567;SDS011;7885;42.596;23.044;2023-08-07T09:30:36;3.43;;;1.37;;
15567;SDS011;7885;42.596;23.044;2023-08-07T09:33:03;1.60;;;1.30;;
15567;SDS011;7885;42.596;23.044;2023-08-07T09:35:31;1.10;;;1.10;;
15567;SDS011;7885;42.596;23.044;2023-08-07T09:38:00;2.15;;;1.25;;
15567;SDS011;7885;42.596;23.044;2023-08-07T09:40:27;1.25;;;1.15;;
15567;SDS011;7885;42.596;23.044;2023-08-07T09:42:55;3.00;;;1.23;;
15567;SDS011;7885;42.596;23.044;2023-08-07T09:45:23;1.30;;;1.20;;
15567;SDS011;7885;42.596;23.044;2023-08-07T09:47:56;1.40;;;1.30;;
15567;SDS011;7885;42.596;23.044;2023-08-07T09:50:24;1.40;;;1.30;;
15567;SDS011;7885;42.596;23.044;2023-08-07T09:52:52;2.60;;;1.30;;
15567;SDS011;7885;42.596;23.044;2023-08-07T09:55:20;4.53;;;1.60;;
15567;SDS011;7885;42.596;23.044;2023-08-07T09:57:47;1.55;;;1.45;;
15567;SDS011;7885;42.596;23.044;2023-08-07T10:00:15;1.60;;;1.50;;
15567;SDS011;7885;42.596;23.044;2023-08-07T10:02:44;2.17;;;1.40;;
15567;SDS011;7885;42.596;23.044;2023-08-07T10:05:12;1.40;;;1.30;;
15567;SDS011;7885;42.596;23.044;2023-08-07T10:07:40;1.50;;;1.40;;
15567;SDS011;7885;42.596;23.044;2023-08-07T10:10:07;1.45;;;1.35;;
15567;SDS011;7885;42.596;23.044;2023-08-07T10:12:37;2.75;;;1.48;;
15567;SDS011;7885;42.596;23.044;2023-08-07T10:15:04;2.65;;;1.30;;
15567;SDS011;7885;42.596;23.044;2023-08-07T10:17:32;2.33;;;1.40;;
15567;SDS011;7885;42.596;23.044;2023-08-07T10:19:59;3.30;;;1.40;;
15567;SDS011;7885;42.596;23.044;2023-08-07T10:22:27;3.38;;;1.50;;
15567;SDS011;7885;42.596;23.044;2023-08-07T10:24:56;1.30;;;1.20;;
15567;SDS011;7885;42.596;23.044;2023-08-07T10:27:25;1.75;;;1.40;;
15567;SDS011;7885;42.596;23.044;2023-08-07T10:29:55;3.92;;;1.25;;
15567;SDS011;7885;42.596;23.044;2023-08-07T10:32:26;2.10;;;1.17;;
15567;SDS011;7885;42.596;23.044;2023-08-07T10:34:54;1.92;;;1.20;;
15567;SDS011;7885;42.596;23.044;2023-08-07T10:37:38;1.55;;;1.30;;
15567;SDS011;7885;42.596;23.044;2023-08-07T10:40:06;1.33;;;1.23;;
15567;SDS011;7885;42.596;23.044;2023-08-07T10:42:49;2.03;;;1.38;;
15567;SDS011;7885;42.596;23.044;2023-08-07T10:45:19;1.35;;;1.25;;
15567;SDS011;7885;42.596;23.044;2023-08-07T10:47:56;1.52;;;1.20;;
15567;SDS011;7885;42.596;23.044;2023-08-07T10:50:27;1.25;;;1.15;;
15567;SDS011;7885;42.596;23.044;2023-08-07T10:52:55;1.67;;;1.35;;
15567;SDS011;7885;42.596;23.044;2023-08-07T10:55:22;1.45;;;1.35;;
15567;SDS011;7885;42.596;23.044;2023-08-07T10:57:50;2.20;;;1.48;;
15567;SDS011;7885;42.596;23.044;2023-08-07T11:00:18;2.05;;;1.30;;
15567;SDS011;7885;42.596;23.044;2023-08-07T11:02:51;2.22;;;1.52;;
15567;SDS011;7885;42.596;23.044;2023-08-07T11:05:19;2.00;;;1.58;;
15567;SDS011;7885;42.596;23.044;2023-08-07T11:07:45;1.52;;;1.42;;
15567;SDS011;7885;42.596;23.044;2023-08-07T11:10:13;1.85;;;1.30;;
15567;SDS011;7885;42.596;23.044;2023-08-07T11:12:41;4.53;;;1.25;;
15567;SDS011;7885;42.596;23.044;2023-08-07T11:15:11;1.27;;;1.15;;
15567;SDS011;7885;42.596;23.044;2023-08-07T11:17:40;1.30;;;1.20;;
15567;SDS011;7885;42.596;23.044;2023-08-07T11:20:07;1.38;;;1.27;;
15567;SDS011;7885;42.596;23.044;2023-08-07T11:22:37;2.17;;;1.60;;
15567;SDS011;7885;42.596;23.044;2023-08-07T11:25:06;1.50;;;1.40;;
15567;SDS011;7885;42.596;23.044;2023-08-07T11:27:38;1.30;;;1.20;;
15567;SDS011;7885;42.596;23.044;2023-08-07T11:30:06;1.45;;;1.20;;
15567;SDS011;7885;42.596;23.044;2023-08-07T11:32:38;1.48;;;1.38;;
15567;SDS011;7885;42.596;23.044;2023-08-07T11:35:06;1.92;;;1.33;;
15567;SDS011;7885;42.596;23.044;2023-08-07T11:37:35;1.30;;;1.20;;
15567;SDS011;7885;42.596;23.044;2023-08-07T11:40:02;2.45;;;1.30;;
15567;SDS011;7885;42.596;23.044;2023-08-07T11:42:29;1.75;;;1.10;;
15567;SDS011;7885;42.596;23.044;2023-08-07T11:44:56;1.52;;;1.42;;
15567;SDS011;7885;42.596;23.044;2023-08-07T11:47:22;1.40;;;1.15;;
15567;SDS011;7885;42.596;23.044;2023-08-07T11:49:51;1.33;;;1.23;;
15567;SDS011;7885;42.596;23.044;2023-08-07T11:52:18;2.50;;;1.30;;
15567;SDS011;7885;42.596;23.044;2023-08-07T11:54:47;1.58;;;1.48;;
15567;SDS011;7885;42.596;23.044;2023-08-07T11:57:15;1.83;;;1.35;;
15567;SDS011;7885;42.596;23.044;2023-08-07T11:59:46;2.03;;;1.48;;
15567;SDS011;7885;42.596;23.044;2023-08-07T12:02:14;1.55;;;1.38;;
15567;SDS011;7885;42.596;23.044;2023-08-07T12:04:41;2.08;;;1.20;;
15567;SDS011;7885;42.596;23.044;2023-08-07T12:07:09;3.63;;;1.30;;
15567;SDS011;7885;42.596;23.044;2023-08-07T12:09:36;2.00;;;1.33;;
15567;SDS011;7885;42.596;23.044;2023-08-07T12:12:04;2.38;;;1.40;;
15567;SDS011;7885;42.596;23.044;2023-08-07T12:14:33;12.13;;;2.22;;
15567;SDS011;7885;42.596;23.044;2023-08-07T12:17:00;2.05;;;1.30;;
15567;SDS011;7885;42.596;23.044;2023-08-07T12:19:35;1.70;;;1.60;;
15567;SDS011;7885;42.596;23.044;2023-08-07T12:22:05;2.40;;;1.40;;
15567;SDS011;7885;42.596;23.044;2023-08-07T12:24:34;2.67;;;1.48;;
15567;SDS011;7885;42.596;23.044;2023-08-07T12:27:02;1.73;;;1.40;;
15567;SDS011;7885;42.596;23.044;2023-08-07T12:29:29;3.17;;;1.58;;
15567;SDS011;7885;42.596;23.044;2023-08-07T12:31:55;1.50;;;1.25;;
15567;SDS011;7885;42.596;23.044;2023-08-07T12:34:24;5.53;;;1.52;;
15567;SDS011;7885;42.596;23.044;2023-08-07T12:36:50;2.95;;;1.33;;
15567;SDS011;7885;42.596;23.044;2023-08-07T12:39:17;2.90;;;1.48;;
15567;SDS011;7885;42.596;23.044;2023-08-07T12:41:45;2.60;;;1.50;;
15567;SDS011;7885;42.596;23.044;2023-08-07T12:44:13;2.50;;;1.42;;
15567;SDS011;7885;42.596;23.044;2023-08-07T12:46:40;2.05;;;1.42;;
15567;SDS011;7885;42.596;23.044;2023-08-07T12:49:08;2.40;;;1.75;;
15567;SDS011;7885;42.596;23.044;2023-08-07T12:51:35;2.92;;;1.73;;
15567;SDS011;7885;42.596;23.044;2023-08-07T12:54:02;3.50;;;1.60;;
15567;SDS011;7885;42.596;23.044;2023-08-07T12:56:29;1.80;;;1.70;;
15567;SDS011;7885;42.596;23.044;2023-08-07T12:58:57;2.90;;;1.50;;
15567;SDS011;7885;42.596;23.044;2023-08-07T13:01:24;2.08;;;1.38;;
15567;SDS011;7885;42.596;23.044;2023-08-07T13:03:51;1.80;;;1.70;;
15567;SDS011;7885;42.596;23.044;2023-08-07T13:06:18;1.95;;;1.85;;
15567;SDS011;7885;42.596;23.044;2023-08-07T13:11:40;1.98;;;1.60;;
15567;SDS011;7885;42.596;23.044;2023-08-07T13:14:08;1.95;;;1.30;;
15567;SDS011;7885;42.596;23.044;2023-08-07T13:16:35;2.53;;;1.60;;
15567;SDS011;7885;42.596;23.044;2023-08-07T13:19:01;1.50;;;1.40;;
15567;SDS011;7885;42.596;23.044;2023-08-07T13:21:28;1.98;;;1.55;;
15567;SDS011;7885;42.596;23.044;2023-08-07T13:23:55;1.40;;;1.30;;
15567;SDS011;7885;42.596;23.044;2023-08-07T13:26:22;1.73;;;1.40;;
15567;SDS011;7885;42.596;23.044;2023-08-07T13:28:48;3.80;;;1.50;;
15567;SDS011;7885;42.596;23.044;2023-08-07T13:31:17;3.47;;;1.40;;
15567;SDS011;7885;42.596;23.044;2023-08-07T13:33:43;2.35;;;1.67;;
15567;SDS011;7885;42.596;23.044;2023-08-07T13:36:10;3.38;;;1.60;;
15567;SDS011;7885;42.596;23.044;2023-08-07T13:38:37;2.83;;;1.50;;
15567;SDS011;7885;42.596;23.044;2023-08-07T13:41:04;1.80;;;1.70;;
15567;SDS011;7885;42.596;23.044;2023-08-07T13:43:31;3.03;;;1.45;;
15567;SDS011;7885;42.596;23.044;2023-08-07T13:45:57;2.42;;;1.52;;
15567;SDS011;7885;42.596;23.044;2023-08-07T13:48:25;3.60;;;1.70;;
15567;SDS011;7885;42.596;23.044;2023-08-07T13:50:53;1.83;;;1.60;;
15567;SDS011;7885;42.596;23.044;2023-08-07T13:53:20;1.83;;;1.67;;
15567;SDS011;7885;42.596;23.044;2023-08-07T13:55:49;3.03;;;1.58;;
15567;SDS011;7885;42.596;23.044;2023-08-07T13:58:15;3.42;;;1.60;;
15567;SDS011;7885;42.596;23.044;2023-08-07T14:00:42;1.70;;;1.60;;
15567;SDS011;7885;42.596;23.044;2023-08-07T14:03:09;6.00;;;1.67;;
15567;SDS011;7885;42.596;23.044;2023-08-07T14:05:39;2.58;;;1.70;;
15567;SDS011;7885;42.596;23.044;2023-08-07T14:08:05;3.42;;;1.60;;
15567;SDS011;7885;42.596;23.044;2023-08-07T14:10:34;2.38;;;2.00;;
15567;SDS011;7885;42.596;23.044;2023-08-07T14:13:02;1.60;;;1.48;;
15567;SDS011;7885;42.596;23.044;2023-08-07T14:15:29;2.50;;;1.73;;
15567;SDS011;7885;42.596;23.044;2023-08-07T14:17:56;4.68;;;1.80;;
15567;SDS011;7885;42.596;23.044;2023-08-07T14:20:23;2.75;;;1.60;;
15567;SDS011;7885;42.596;23.044;2023-08-07T14:22:52;3.05;;;1.80;;
15567;SDS011;7885;42.596;23.044;2023-08-07T14:25:18;5.57;;;1.80;;
15567;SDS011;7885;42.596;23.044;2023-08-07T14:27:46;2.10;;;1.90;;
15567;SDS011;7885;42.596;23.044;2023-08-07T14:30:13;2.25;;;1.77;;
15567;SDS011;7885;42.596;23.044;2023-08-07T14:32:42;3.30;;;1.90;;
15567;SDS011;7885;42.596;23.044;2023-08-07T14:35:12;3.67;;;1.90;;
15567;SDS011;7885;42.596;23.044;2023-08-07T14:37:41;2.92;;;1.90;;
15567;SDS011;7885;42.596;23.044;2023-08-07T14:40:10;2.85;;;1.70;;
15567;SDS011;7885;42.596;23.044;2023-08-07T14:42:37;1.65;;;1.55;;
15567;SDS011;7885;42.596;23.044;2023-08-07T14:45:04;7.33;;;1.80;;
15567;SDS011;7885;42.596;23.044;2023-08-07T14:47:32;3.20;;;1.57;;
15567;SDS011;7885;42.596;23.044;2023-08-07T14:49:59;2.50;;;1.60;;
15567;SDS011;7885;42.596;23.044;2023-08-07T14:52:25;2.20;;;1.40;;
15567;SDS011;7885;42.596;23.044;2023-08-07T14:54:52;2.93;;;1.50;;
15567;SDS011;7885;42.596;23.044;2023-08-07T14:57:23;1.63;;;1.53;;